Time;durP1;ratioP1;P1;durP2;ratioP2;P2;SDS_P1;SDS_P2;PMS_P1;PMS_P2;Temp;Humidity;BMP_temperature;BMP_pressure;BME280_temperature;BME280_humidity;BME280_pressure;Samples;Min_cycle;Max_cycle;Signal;HPM_P1;HPM_P2
2022/05/28 00:02:07;;;;;;;2.20;0.95;;;;;;;;;;4972387;28;20495;-75
2022/05/28 00:04:33;;;;;;;2.35;0.93;;;;;;;;;;4972465;28;20031;-75
2022/05/28 00:07:00;;;;;;;1.90;1.00;;;;;;;;;;4972303;28;20031;-75
2022/05/28 00:09:26;;;;;;;6.32;1.13;;;;;;;;;;4968697;28;20007;-75
2022/05/28 00:11:52;;;;;;;2.60;1.08;;;;;;;;;;4970486;28;20097;-76
2022/05/28 00:14:19;;;;;;;2.40;1.17;;;;;;;;;;4968048;28;20047;-75
2022/05/28 00:16:46;;;;;;;4.80;1.10;;;;;;;;;;4967817;28;20033;-76
2022/05/28 00:19:12;;;;;;;1.85;1.00;;;;;;;;;;4967950;28;20031;-76
2022/05/28 00:21:38;;;;;;;2.38;1.00;;;;;;;;;;4968320;28;20062;-75
2022/05/28 00:24:05;;;;;;;5.43;0.85;;;;;;;;;;4972224;28;20035;-76
2022/05/28 00:26:31;;;;;;;4.43;0.77;;;;;;;;;;4972493;28;20039;-75
2022/05/28 00:28:58;;;;;;;1.95;1.08;;;;;;;;;;4971733;28;20069;-75
2022/05/28 00:31:24;;;;;;;2.05;1.10;;;;;;;;;;4971890;28;20053;-76
2022/05/28 00:33:50;;;;;;;3.90;1.10;;;;;;;;;;4971722;28;20045;-76
2022/05/28 00:36:17;;;;;;;2.60;1.10;;;;;;;;;;4972201;28;20015;-75
2022/05/28 00:38:44;;;;;;;1.95;0.90;;;;;;;;;;4971994;28;20518;-76
2022/05/28 00:41:11;;;;;;;2.20;1.17;;;;;;;;;;4972283;28;20027;-75
2022/05/28 00:43:39;;;;;;;1.95;0.90;;;;;;;;;;4972327;28;20027;-76
2022/05/28 00:46:10;;;;;;;5.25;1.13;;;;;;;;;;4975188;28;20027;-76
2022/05/28 00:48:40;;;;;;;2.85;1.20;;;;;;;;;;4975376;28;20081;-75
2022/05/28 00:51:08;;;;;;;5.03;1.10;;;;;;;;;;4960055;28;20019;-75
2022/05/28 00:53:35;;;;;;;3.35;1.10;;;;;;;;;;4971829;28;20042;-76
2022/05/28 00:56:02;;;;;;;1.05;0.80;;;;;;;;;;4970792;28;20050;-76
2022/05/28 00:58:29;;;;;;;3.22;1.10;;;;;;;;;;4970627;28;20041;-75
2022/05/28 01:00:55;;;;;;;4.22;1.20;;;;;;;;;;4971106;28;20024;-76
2022/05/28 01:03:25;;;;;;;2.60;1.20;;;;;;;;;;4974984;28;20199;-75
2022/05/28 01:05:54;;;;;;;4.43;1.00;;;;;;;;;;4975038;28;20396;-76
2022/05/28 01:08:41;;;;;;;4.05;1.10;;;;;;;;;;4973773;28;20018;-75
2022/05/28 01:11:28;;;;;;;2.90;1.35;;;;;;;;;;4974984;28;20030;-76
2022/05/28 01:13:54;;;;;;;3.30;1.13;;;;;;;;;;4974533;28;20039;-76
2022/05/28 01:16:24;;;;;;;2.53;1.15;;;;;;;;;;4974797;28;20015;-76
2022/05/28 01:19:16;;;;;;;3.90;1.10;;;;;;;;;;4974890;28;20038;-75
2022/05/28 01:22:01;;;;;;;1.23;1.00;;;;;;;;;;4974559;28;20035;-75
2022/05/28 01:24:34;;;;;;;2.88;1.08;;;;;;;;;;4974673;28;20411;-76
2022/05/28 01:27:03;;;;;;;7.78;1.25;;;;;;;;;;4974317;28;20022;-76
2022/05/28 01:29:32;;;;;;;4.95;1.10;;;;;;;;;;4975286;28;20383;-75
2022/05/28 01:31:59;;;;;;;1.38;1.02;;;;;;;;;;4974304;28;20029;-76
2022/05/28 01:34:26;;;;;;;2.42;0.80;;;;;;;;;;4969152;28;20391;-75
2022/05/28 01:36:55;;;;;;;3.63;1.27;;;;;;;;;;4970204;28;20035;-75
2022/05/28 01:39:22;;;;;;;3.30;1.08;;;;;;;;;;4972662;28;20019;-75
2022/05/28 01:41:49;;;;;;;1.83;1.00;;;;;;;;;;4971739;28;20030;-75
2022/05/28 01:44:16;;;;;;;1.63;1.10;;;;;;;;;;4974707;28;20041;-76
2022/05/28 01:46:43;;;;;;;3.58;1.13;;;;;;;;;;4974033;28;20069;-75
2022/05/28 01:49:11;;;;;;;1.77;0.90;;;;;;;;;;4974207;28;20035;-75
2022/05/28 01:51:41;;;;;;;1.55;1.10;;;;;;;;;;4989146;28;20037;-76
2022/05/28 01:54:08;;;;;;;2.65;1.20;;;;;;;;;;4959006;28;20037;-75
2022/05/28 01:56:38;;;;;;;4.43;1.00;;;;;;;;;;4969486;28;20019;-76
2022/05/28 01:59:05;;;;;;;2.17;1.17;;;;;;;;;;4970002;28;20082;-75
2022/05/28 02:01:32;;;;;;;2.45;1.08;;;;;;;;;;4969591;28;20391;-75
2022/05/28 02:04:00;;;;;;;3.85;1.40;;;;;;;;;;4969406;28;20488;-76
2022/05/28 02:06:26;;;;;;;3.35;1.20;;;;;;;;;;4971667;28;20073;-75
2022/05/28 02:08:55;;;;;;;1.15;1.00;;;;;;;;;;4972379;28;20102;-76
2022/05/28 02:11:26;;;;;;;4.47;1.20;;;;;;;;;;4969724;28;20039;-75
2022/05/28 02:14:09;;;;;;;1.85;1.17;;;;;;;;;;4969568;28;20029;-76
2022/05/28 02:16:49;;;;;;;2.97;1.10;;;;;;;;;;4969249;28;20443;-76
2022/05/28 02:19:30;;;;;;;2.85;1.25;;;;;;;;;;4969343;28;20383;-76
2022/05/28 02:22:11;;;;;;;2.78;1.38;;;;;;;;;;4973480;28;20030;-76
2022/05/28 02:24:40;;;;;;;2.67;1.20;;;;;;;;;;4973114;28;20060;-75
2022/05/28 02:27:12;;;;;;;4.82;1.30;;;;;;;;;;4958048;28;20023;-76
2022/05/28 02:29:39;;;;;;;2.90;1.17;;;;;;;;;;4970196;28;20026;-75
2022/05/28 02:32:13;;;;;;;7.72;1.30;;;;;;;;;;4969239;28;20395;-75
2022/05/28 02:34:40;;;;;;;2.58;1.35;;;;;;;;;;4969000;28;20011;-76
2022/05/28 02:37:07;;;;;;;5.60;1.52;;;;;;;;;;4968955;28;20488;-76
2022/05/28 02:39:33;;;;;;;2.58;1.20;;;;;;;;;;4969780;28;20050;-75
2022/05/28 02:41:59;;;;;;;3.78;1.30;;;;;;;;;;4972403;28;20522;-75
2022/05/28 02:44:26;;;;;;;5.20;1.40;;;;;;;;;;4969346;28;20043;-76
2022/05/28 02:46:52;;;;;;;3.53;1.33;;;;;;;;;;4968814;28;20035;-75
2022/05/28 02:49:18;;;;;;;3.58;1.20;;;;;;;;;;4968784;28;20027;-76
2022/05/28 02:51:45;;;;;;;2.88;1.23;;;;;;;;;;4968716;28;20037;-75
2022/05/28 02:54:11;;;;;;;3.35;1.30;;;;;;;;;;4972492;28;20022;-76
2022/05/28 02:56:37;;;;;;;3.58;1.30;;;;;;;;;;4969673;28;20398;-76
2022/05/28 02:59:04;;;;;;;4.57;1.20;;;;;;;;;;4972992;28;20022;-75
2022/05/28 03:01:33;;;;;;;3.95;1.15;;;;;;;;;;4972960;28;20010;-75
2022/05/28 03:04:00;;;;;;;4.43;1.40;;;;;;;;;;4972875;28;20046;-76
2022/05/28 03:06:26;;;;;;;2.25;1.40;;;;;;;;;;4973042;28;20025;-75
2022/05/28 03:08:53;;;;;;;3.22;1.10;;;;;;;;;;4972696;28;20045;-75
2022/05/28 03:11:20;;;;;;;6.93;1.50;;;;;;;;;;4971188;28;20019;-76
2022/05/28 03:13:46;;;;;;;3.38;1.20;;;;;;;;;;4972787;28;20039;-75
2022/05/28 03:16:13;;;;;;;3.38;1.25;;;;;;;;;;4972938;28;20041;-76
2022/05/28 03:18:39;;;;;;;3.88;1.30;;;;;;;;;;4967656;28;20038;-75
2022/05/28 03:21:08;;;;;;;1.55;1.17;;;;;;;;;;4971746;28;20403;-75
2022/05/28 03:23:34;;;;;;;4.88;1.50;;;;;;;;;;4973265;28;20035;-76
2022/05/28 03:26:19;;;;;;;2.90;1.50;;;;;;;;;;4972822;28;20031;-76
2022/05/28 03:28:46;;;;;;;7.13;1.30;;;;;;;;;;4972388;28;20030;-76
2022/05/28 03:31:13;;;;;;;2.97;1.17;;;;;;;;;;4967285;28;20029;-76
2022/05/28 03:33:40;;;;;;;4.32;1.40;;;;;;;;;;4968508;28;20023;-76
2022/05/28 03:36:07;;;;;;;5.88;1.40;;;;;;;;;;4972449;28;20030;-76
2022/05/28 03:38:34;;;;;;;5.63;1.30;;;;;;;;;;4968379;28;20522;-75
2022/05/28 03:41:00;;;;;;;4.57;1.23;;;;;;;;;;4972705;28;20027;-76
2022/05/28 03:43:27;;;;;;;4.28;1.25;;;;;;;;;;4972384;28;20088;-75
2022/05/28 03:45:54;;;;;;;3.40;1.30;;;;;;;;;;4972721;28;20427;-75
2022/05/28 03:48:21;;;;;;;3.58;1.15;;;;;;;;;;4972414;28;20050;-75
2022/05/28 03:50:47;;;;;;;2.67;1.27;;;;;;;;;;4972280;28;20023;-75
2022/05/28 03:53:15;;;;;;;3.45;1.48;;;;;;;;;;4972853;28;20026;-75
2022/05/28 03:55:42;;;;;;;3.97;1.27;;;;;;;;;;4972250;28;20407;-75
2022/05/28 03:58:08;;;;;;;3.50;1.40;;;;;;;;;;4972456;28;20023;-76
2022/05/28 04:00:34;;;;;;;6.00;1.45;;;;;;;;;;4972504;28;20030;-76
2022/05/28 04:03:01;;;;;;;3.35;1.10;;;;;;;;;;4971096;28;20035;-76
2022/05/28 04:05:28;;;;;;;4.72;1.40;;;;;;;;;;4972344;28;20029;-76
2022/05/28 04:07:54;;;;;;;2.47;1.20;;;;;;;;;;4972438;28;20027;-75
2022/05/28 04:10:20;;;;;;;5.20;1.27;;;;;;;;;;4971204;28;20031;-75
2022/05/28 04:12:47;;;;;;;2.28;1.20;;;;;;;;;;4971996;28;20499;-75
2022/05/28 04:15:13;;;;;;;3.70;1.67;;;;;;;;;;4970868;28;20041;-75
2022/05/28 04:17:40;;;;;;;2.30;1.42;;;;;;;;;;4972542;28;20033;-76
2022/05/28 04:20:08;;;;;;;5.57;1.40;;;;;;;;;;4975175;28;20506;-75
2022/05/28 04:22:34;;;;;;;2.20;1.17;;;;;;;;;;4975781;28;20023;-76
2022/05/28 04:25:00;;;;;;;2.15;1.10;;;;;;;;;;4976100;28;20038;-76
2022/05/28 04:27:27;;;;;;;3.22;1.20;;;;;;;;;;4975816;28;20487;-76
2022/05/28 04:29:53;;;;;;;3.45;1.30;;;;;;;;;;4975693;28;20030;-76
2022/05/28 04:32:19;;;;;;;1.65;1.10;;;;;;;;;;4974399;28;20031;-76
2022/05/28 04:34:46;;;;;;;4.20;1.27;;;;;;;;;;4975067;28;20029;-76
2022/05/28 04:37:12;;;;;;;2.33;1.30;;;;;;;;;;4975405;28;20034;-75
2022/05/28 04:39:39;;;;;;;5.43;1.40;;;;;;;;;;4975842;28;20085;-76
2022/05/28 04:42:05;;;;;;;5.03;1.30;;;;;;;;;;4975628;28;20462;-75
2022/05/28 04:44:31;;;;;;;5.57;1.90;;;;;;;;;;4975858;28;20037;-75
2022/05/28 04:46:58;;;;;;;2.60;1.42;;;;;;;;;;4975720;28;20038;-75
2022/05/28 04:49:24;;;;;;;4.68;1.20;;;;;;;;;;4975279;28;20065;-76
2022/05/28 04:51:50;;;;;;;2.70;1.30;;;;;;;;;;4975421;28;20496;-75
2022/05/28 04:54:17;;;;;;;1.85;1.20;;;;;;;;;;4975978;28;20027;-76
2022/05/28 04:56:43;;;;;;;2.33;1.33;;;;;;;;;;4975443;28;20015;-76
2022/05/28 04:59:10;;;;;;;1.50;1.00;;;;;;;;;;4975589;28;20069;-75
2022/05/28 05:01:36;;;;;;;3.83;1.20;;;;;;;;;;4969755;28;20091;-75
2022/05/28 05:04:03;;;;;;;3.08;1.60;;;;;;;;;;4970683;28;20053;-76
2022/05/28 05:06:29;;;;;;;2.53;1.42;;;;;;;;;;4972854;28;20021;-75
2022/05/28 05:08:55;;;;;;;2.88;1.60;;;;;;;;;;4973658;28;20039;-76
2022/05/28 05:11:22;;;;;;;2.63;1.25;;;;;;;;;;4971165;28;20031;-75
2022/05/28 05:13:48;;;;;;;4.40;1.50;;;;;;;;;;4970515;28;20033;-75
2022/05/28 05:16:16;;;;;;;3.28;1.40;;;;;;;;;;4970835;28;20018;-76
2022/05/28 05:18:42;;;;;;;2.33;1.27;;;;;;;;;;4970356;28;20063;-75
2022/05/28 05:21:11;;;;;;;3.25;1.25;;;;;;;;;;4974803;28;20400;-76
2022/05/28 05:23:41;;;;;;;4.47;1.55;;;;;;;;;;4975291;28;20496;-75
2022/05/28 05:26:26;;;;;;;2.05;1.20;;;;;;;;;;4974521;28;20546;-76
2022/05/28 05:28:52;;;;;;;3.25;1.30;;;;;;;;;;4974397;28;20032;-76
2022/05/28 05:31:19;;;;;;;4.13;1.33;;;;;;;;;;4974620;28;20033;-76
2022/05/28 05:33:45;;;;;;;5.15;1.58;;;;;;;;;;4974416;28;20022;-75
2022/05/28 05:36:11;;;;;;;3.25;1.40;;;;;;;;;;4974384;28;20076;-75
2022/05/28 05:38:38;;;;;;;2.75;1.27;;;;;;;;;;4975021;28;20031;-75
2022/05/28 05:41:04;;;;;;;2.92;1.30;;;;;;;;;;4974338;28;20492;-76
2022/05/28 05:43:31;;;;;;;2.70;1.20;;;;;;;;;;4974191;28;20039;-76
2022/05/28 05:45:58;;;;;;;3.50;1.48;;;;;;;;;;4974316;28;20029;-75
2022/05/28 05:48:25;;;;;;;2.60;1.45;;;;;;;;;;4973788;28;20051;-76
2022/05/28 05:50:51;;;;;;;4.30;2.03;;;;;;;;;;4974483;28;20030;-75
2022/05/28 05:53:18;;;;;;;4.20;1.45;;;;;;;;;;4974475;28;20053;-76
2022/05/28 05:55:44;;;;;;;3.97;1.55;;;;;;;;;;4974603;28;20019;-75
2022/05/28 05:58:11;;;;;;;3.35;1.20;;;;;;;;;;4973961;28;20030;-76
2022/05/28 06:00:37;;;;;;;2.78;1.40;;;;;;;;;;4974179;28;20459;-76
2022/05/28 06:03:04;;;;;;;3.08;1.55;;;;;;;;;;4974149;28;20027;-75
2022/05/28 06:05:30;;;;;;;4.85;1.30;;;;;;;;;;4974782;28;20510;-76
2022/05/28 06:07:56;;;;;;;4.28;1.42;;;;;;;;;;4974269;28;20023;-76
2022/05/28 06:10:23;;;;;;;2.47;1.05;;;;;;;;;;4974351;28;20042;-75
2022/05/28 06:12:49;;;;;;;3.10;1.33;;;;;;;;;;4974193;28;20015;-76
2022/05/28 06:15:16;;;;;;;2.25;1.15;;;;;;;;;;4973851;28;20429;-75
2022/05/28 06:17:42;;;;;;;2.33;1.10;;;;;;;;;;4973668;28;20033;-75
2022/05/28 06:20:10;;;;;;;1.63;0.90;;;;;;;;;;4973674;28;20512;-76
2022/05/28 06:22:37;;;;;;;7.05;1.10;;;;;;;;;;4973847;28;20093;-76
2022/05/28 06:25:03;;;;;;;1.17;0.88;;;;;;;;;;4974056;28;20022;-76
2022/05/28 06:27:31;;;;;;;2.95;1.08;;;;;;;;;;4974078;28;20391;-76
2022/05/28 06:29:57;;;;;;;3.92;1.20;;;;;;;;;;4973708;28;20034;-75
2022/05/28 06:32:24;;;;;;;1.75;0.80;;;;;;;;;;4973811;28;20041;-75
2022/05/28 06:34:50;;;;;;;1.40;0.95;;;;;;;;;;4973571;28;20432;-75
2022/05/28 06:37:17;;;;;;;1.80;1.10;;;;;;;;;;4973251;28;20023;-75
2022/05/28 06:39:43;;;;;;;2.40;0.95;;;;;;;;;;4973596;28;20041;-75
2022/05/28 06:42:10;;;;;;;2.28;1.10;;;;;;;;;;4973274;28;20033;-75
2022/05/28 06:44:36;;;;;;;1.90;0.90;;;;;;;;;;4970091;28;20042;-75
2022/05/28 06:47:03;;;;;;;2.00;1.02;;;;;;;;;;4962461;28;20047;-75
2022/05/28 06:49:30;;;;;;;1.33;0.73;;;;;;;;;;4968683;28;20018;-76
2022/05/28 06:51:57;;;;;;;2.22;0.90;;;;;;;;;;4973480;28;20029;-75
2022/05/28 06:54:23;;;;;;;2.25;0.90;;;;;;;;;;4973273;28;20510;-76
2022/05/28 06:56:49;;;;;;;1.38;0.80;;;;;;;;;;4973367;28;20031;-75
2022/05/28 06:59:16;;;;;;;2.78;1.00;;;;;;;;;;4973249;28;20031;-75
2022/05/28 07:01:42;;;;;;;0.95;0.70;;;;;;;;;;4972995;28;20034;-76
2022/05/28 07:04:08;;;;;;;1.65;0.77;;;;;;;;;;4973021;28;20035;-76
2022/05/28 07:06:36;;;;;;;1.05;0.82;;;;;;;;;;4972902;28;20027;-75
2022/05/28 07:09:05;;;;;;;4.75;0.95;;;;;;;;;;4972974;28;20022;-76
2022/05/28 07:11:31;;;;;;;1.33;0.80;;;;;;;;;;4973474;28;20476;-76
2022/05/28 07:13:58;;;;;;;1.13;0.90;;;;;;;;;;4972428;28;20027;-76
2022/05/28 07:16:24;;;;;;;0.63;0.60;;;;;;;;;;4972644;28;20026;-75
2022/05/28 07:18:50;;;;;;;2.88;0.70;;;;;;;;;;4972632;28;20033;-76
2022/05/28 07:21:17;;;;;;;1.63;0.75;;;;;;;;;;4972552;28;20033;-76
2022/05/28 07:23:43;;;;;;;2.20;0.98;;;;;;;;;;4971642;28;20056;-76
2022/05/28 07:26:17;;;;;;;1.60;0.70;;;;;;;;;;4972870;28;20041;-76
2022/05/28 07:28:45;;;;;;;0.88;0.60;;;;;;;;;;4972187;28;20080;-75
2022/05/28 07:31:18;;;;;;;2.30;0.63;;;;;;;;;;4972613;28;20089;-75
2022/05/28 07:33:45;;;;;;;3.13;0.70;;;;;;;;;;4972454;28;20037;-76
2022/05/28 07:36:14;;;;;;;0.65;0.60;;;;;;;;;;4972761;28;20023;-75
2022/05/28 07:38:42;;;;;;;3.00;0.68;;;;;;;;;;4972734;28;20085;-76
2022/05/28 07:41:10;;;;;;;4.13;0.73;;;;;;;;;;4972390;28;20029;-76
2022/05/28 07:43:37;;;;;;;5.60;0.98;;;;;;;;;;4971926;28;20403;-73
2022/05/28 07:46:04;;;;;;;1.45;0.70;;;;;;;;;;4972609;28;20031;-76
2022/05/28 07:48:30;;;;;;;5.07;0.98;;;;;;;;;;4970668;28;20046;-76
2022/05/28 07:50:56;;;;;;;1.63;0.90;;;;;;;;;;4972310;28;20030;-75
2022/05/28 07:53:23;;;;;;;2.38;0.90;;;;;;;;;;4973181;28;20038;-76
2022/05/28 07:55:49;;;;;;;2.10;1.15;;;;;;;;;;4976064;28;20034;-73
2022/05/28 07:58:18;;;;;;;4.00;1.23;;;;;;;;;;4970439;28;20460;-76
2022/05/28 08:00:46;;;;;;;4.80;2.03;;;;;;;;;;4972196;28;20031;-74
2022/05/28 08:03:13;;;;;;;2.78;1.48;;;;;;;;;;4975568;28;20407;-76
2022/05/28 08:05:41;;;;;;;2.88;1.13;;;;;;;;;;4973315;28;20033;-73
2022/05/28 08:08:08;;;;;;;2.03;1.30;;;;;;;;;;4976249;28;20035;-74
2022/05/28 08:10:34;;;;;;;2.60;1.23;;;;;;;;;;4976005;28;20015;-74
2022/05/28 08:13:05;;;;;;;2.35;0.93;;;;;;;;;;4975559;28;20381;-74
2022/05/28 08:15:32;;;;;;;3.70;0.90;;;;;;;;;;4976345;28;20021;-73
2022/05/28 08:17:58;;;;;;;2.47;0.80;;;;;;;;;;4974548;28;20061;-73
2022/05/28 08:23:08;;;;;;;4.93;0.93;;;;;;;;;;4976376;28;20023;-73
2022/05/28 08:23:11;;;;;;;0.85;0.73;;;;;;;;;;4975220;28;20569;-74
2022/05/28 08:25:39;;;;;;;1.52;0.77;;;;;;;;;;4975799;28;20030;-73
2022/05/28 08:28:06;;;;;;;1.23;0.80;;;;;;;;;;4975313;28;20022;-74
2022/05/28 08:30:33;;;;;;;2.30;0.63;;;;;;;;;;4975613;28;20391;-73
2022/05/28 08:32:59;;;;;;;0.80;0.75;;;;;;;;;;4975589;28;20030;-74
2022/05/28 08:35:25;;;;;;;2.58;1.00;;;;;;;;;;4976068;28;20031;-74
2022/05/28 08:37:52;;;;;;;2.72;1.00;;;;;;;;;;4975301;28;20061;-74
2022/05/28 08:40:18;;;;;;;0.73;0.70;;;;;;;;;;4975622;28;20056;-73
2022/05/28 08:42:44;;;;;;;1.88;0.90;;;;;;;;;;4973485;28;20031;-73
2022/05/28 08:45:13;;;;;;;2.35;1.00;;;;;;;;;;4975600;28;20029;-73
2022/05/28 08:47:42;;;;;;;0.93;0.93;;;;;;;;;;4975087;28;20054;-73
2022/05/28 08:50:10;;;;;;;1.23;0.80;;;;;;;;;;4974350;28;20031;-73
2022/05/28 08:52:43;;;;;;;1.42;0.98;;;;;;;;;;4974181;28;20084;-73
2022/05/28 08:55:16;;;;;;;1.27;0.90;;;;;;;;;;4973687;28;20035;-74
2022/05/28 08:57:48;;;;;;;0.88;0.60;;;;;;;;;;4974182;28;20027;-74
2022/05/28 09:00:30;;;;;;;1.58;0.88;;;;;;;;;;4971738;28;20041;-74
2022/05/28 09:03:00;;;;;;;1.33;0.90;;;;;;;;;;4972623;28;20410;-73
2022/05/28 09:05:27;;;;;;;2.58;1.17;;;;;;;;;;4970028;28;20034;-73
2022/05/28 09:07:55;;;;;;;1.85;1.13;;;;;;;;;;4973721;28;20057;-74
2022/05/28 09:10:21;;;;;;;4.65;0.88;;;;;;;;;;4973480;28;20023;-73
2022/05/28 09:12:52;;;;;;;1.08;0.90;;;;;;;;;;4973867;28;20026;-73
2022/05/28 09:15:18;;;;;;;1.55;0.90;;;;;;;;;;4973804;28;20041;-73
2022/05/28 09:17:49;;;;;;;2.58;1.05;;;;;;;;;;4973995;28;20049;-73
2022/05/28 09:20:20;;;;;;;2.35;1.15;;;;;;;;;;4969668;28;20033;-74
2022/05/28 09:22:46;;;;;;;2.00;1.23;;;;;;;;;;4969387;28;20023;-74
2022/05/28 09:25:14;;;;;;;2.15;1.13;;;;;;;;;;4969053;28;20026;-73
2022/05/28 09:27:52;;;;;;;3.33;1.08;;;;;;;;;;4975127;28;20488;-73
2022/05/28 09:30:37;;;;;;;2.47;0.80;;;;;;;;;;4959841;28;20021;-73
2022/05/28 09:33:03;;;;;;;1.60;1.10;;;;;;;;;;4973488;28;20049;-73
2022/05/28 09:35:49;;;;;;;1.08;0.98;;;;;;;;;;4974031;28;20035;-73
2022/05/28 09:38:21;;;;;;;2.90;1.05;;;;;;;;;;4973517;28;20518;-74
2022/05/28 09:41:14;;;;;;;1.48;1.10;;;;;;;;;;4973547;28;20022;-74
2022/05/28 09:43:56;;;;;;;1.25;1.02;;;;;;;;;;4973196;28;20049;-73
2022/05/28 09:46:28;;;;;;;1.45;1.10;;;;;;;;;;4932260;28;1197115;-73
2022/05/28 09:48:58;;;;;;;1.83;1.13;;;;;;;;;;4974339;28;20038;-73
2022/05/28 09:51:25;;;;;;;1.67;0.90;;;;;;;;;;4974215;28;20033;-73
2022/05/28 09:54:18;;;;;;;1.10;1.00;;;;;;;;;;4972677;28;20042;-73
2022/05/28 09:56:52;;;;;;;3.38;1.00;;;;;;;;;;4974564;28;20037;-73
2022/05/28 09:59:27;;;;;;;1.40;1.20;;;;;;;;;;4970363;28;20069;-73
2022/05/28 10:01:53;;;;;;;1.77;1.20;;;;;;;;;;4969939;28;20037;-74
2022/05/28 10:04:28;;;;;;;1.30;1.20;;;;;;;;;;4970194;28;20019;-74
2022/05/28 10:06:56;;;;;;;3.33;1.10;;;;;;;;;;4969855;28;20045;-74
2022/05/28 10:09:23;;;;;;;2.15;1.20;;;;;;;;;;4974093;28;20026;-73
2022/05/28 10:11:50;;;;;;;5.45;1.40;;;;;;;;;;4974274;28;20077;-74
2022/05/28 10:14:17;;;;;;;1.10;1.00;;;;;;;;;;4974362;28;20046;-73
2022/05/28 10:16:46;;;;;;;1.92;1.10;;;;;;;;;;4972863;28;20077;-73
2022/05/28 10:19:12;;;;;;;;;;;;;;;;;;4974056;28;20031;-73
2022/05/28 10:21:38;;;;;;;1.73;1.02;;;;;;;;;;4973950;28;19906;-73
2022/05/28 10:24:10;;;;;;;1.17;1.00;;;;;;;;;;4973427;28;20407;-74
2022/05/28 10:26:44;;;;;;;1.30;1.05;;;;;;;;;;4970509;28;20033;-73
2022/05/28 10:29:19;;;;;;;3.65;1.35;;;;;;;;;;4972812;28;20046;-75
2022/05/28 10:31:47;;;;;;;1.70;1.20;;;;;;;;;;4973704;28;20438;-73
2022/05/28 10:34:28;;;;;;;1.25;1.00;;;;;;;;;;4973455;28;20034;-73
2022/05/28 10:37:05;;;;;;;1.65;1.00;;;;;;;;;;4973153;28;20019;-73
2022/05/28 10:39:31;;;;;;;1.42;1.20;;;;;;;;;;4973429;28;20023;-73
2022/05/28 10:41:57;;;;;;;1.30;0.95;;;;;;;;;;4973499;28;20052;-74
2022/05/28 10:44:24;;;;;;;1.95;1.20;;;;;;;;;;4974121;28;20076;-73
2022/05/28 10:46:53;;;;;;;1.75;1.13;;;;;;;;;;4973078;28;20504;-74
2022/05/28 10:49:31;;;;;;;3.67;1.00;;;;;;;;;;4973086;28;20023;-73
2022/05/28 10:52:00;;;;;;;4.53;1.08;;;;;;;;;;4972663;28;20395;-73
2022/05/28 10:54:43;;;;;;;3.90;1.10;;;;;;;;;;4973088;28;20030;-74
2022/05/28 10:57:26;;;;;;;1.85;1.10;;;;;;;;;;4957813;28;20029;-73
2022/05/28 10:59:52;;;;;;;1.60;1.20;;;;;;;;;;4971223;28;20033;-74
2022/05/28 11:02:37;;;;;;;2.20;1.00;;;;;;;;;;4969754;28;20030;-73
2022/05/28 11:05:06;;;;;;;1.50;0.90;;;;;;;;;;4970363;28;20041;-73
2022/05/28 11:07:33;;;;;;;;;;;;;;;;;;4973279;28;20035;-74
2022/05/28 11:10:13;;;;;;;3.13;0.98;;;;;;;;;;4967248;28;19910;-73
2022/05/28 11:12:57;;;;;;;1.92;0.93;;;;;;;;;;4969057;28;20049;-74
2022/05/28 11:15:30;;;;;;;1.15;0.90;;;;;;;;;;4957941;28;20039;-73
2022/05/28 11:17:59;;;;;;;1.27;1.02;;;;;;;;;;4971199;28;20391;-74
2022/05/28 11:20:25;;;;;;;2.25;1.48;;;;;;;;;;4968648;28;20073;-73
2022/05/28 11:22:51;;;;;;;1.50;1.10;;;;;;;;;;4970148;28;20031;-73
2022/05/28 11:25:21;;;;;;;6.57;1.10;;;;;;;;;;4972791;28;20030;-73
2022/05/28 11:27:50;;;;;;;1.30;1.20;;;;;;;;;;4972529;28;20023;-73
2022/05/28 11:30:21;;;;;;;1.63;1.10;;;;;;;;;;4972761;28;20027;-74
2022/05/28 11:32:59;;;;;;;6.82;1.10;;;;;;;;;;4972694;28;20065;-73
2022/05/28 11:35:28;;;;;;;2.17;1.02;;;;;;;;;;4971620;28;20500;-74
2022/05/28 11:37:55;;;;;;;1.67;1.30;;;;;;;;;;4972739;28;20406;-73
2022/05/28 11:40:26;;;;;;;4.70;0.95;;;;;;;;;;4972558;28;20084;-74
2022/05/28 11:42:59;;;;;;;1.52;1.00;;;;;;;;;;4972795;28;20031;-73
2022/05/28 11:45:30;;;;;;;1.95;1.08;;;;;;;;;;4972716;28;20019;-73
2022/05/28 11:48:01;;;;;;;2.35;1.00;;;;;;;;;;4972357;28;20055;-73
2022/05/28 11:53:33;;;;;;;3.03;0.90;;;;;;;;;;4971982;28;20037;-74
2022/05/28 11:56:05;;;;;;;2.28;1.00;;;;;;;;;;4972397;28;20025;-73
2022/05/28 11:58:34;;;;;;;2.05;1.10;;;;;;;;;;4972594;28;20081;-73
2022/05/28 12:01:02;;;;;;;3.35;0.95;;;;;;;;;;4972410;28;20480;-73
2022/05/28 12:03:29;;;;;;;2.40;1.10;;;;;;;;;;4972675;28;20031;-73
2022/05/28 12:06:15;;;;;;;1.48;0.90;;;;;;;;;;4971912;28;20031;-74
2022/05/28 12:08:44;;;;;;;1.15;1.02;;;;;;;;;;4969308;28;20492;-73
2022/05/28 12:11:28;;;;;;;2.00;1.05;;;;;;;;;;4972573;28;20049;-73
2022/05/28 12:14:00;;;;;;;2.88;1.08;;;;;;;;;;4972076;28;20044;-73
2022/05/28 12:16:38;;;;;;;2.40;1.30;;;;;;;;;;4972181;28;20034;-73
2022/05/28 12:19:05;;;;;;;1.92;1.00;;;;;;;;;;4971796;28;20031;-73
2022/05/28 12:21:33;;;;;;;1.67;0.90;;;;;;;;;;4968516;28;20031;-73
2022/05/28 12:24:23;;;;;;;1.55;1.02;;;;;;;;;;4971121;28;20041;-73
2022/05/28 12:29:34;;;;;;;2.78;0.98;;;;;;;;;;4972238;28;20039;-73
2022/05/28 12:32:00;;;;;;;;;;;;;;;;;;4968401;28;20037;-73
2022/05/28 12:34:28;;;;;;;1.80;1.00;;;;;;;;;;4967303;28;19924;-73
2022/05/28 12:36:55;;;;;;;2.75;0.98;;;;;;;;;;4967805;28;20030;-73
2022/05/28 12:39:40;;;;;;;2.55;1.10;;;;;;;;;;4971063;28;20019;-73
2022/05/28 12:42:18;;;;;;;1.52;1.10;;;;;;;;;;4975378;28;20035;-73
2022/05/28 12:44:51;;;;;;;1.65;0.93;;;;;;;;;;4972837;28;20031;-76
2022/05/28 12:47:25;;;;;;;5.18;1.20;;;;;;;;;;4970953;28;20515;-75
2022/05/28 12:50:03;;;;;;;3.15;1.20;;;;;;;;;;4974170;28;20495;-76
2022/05/28 12:52:29;;;;;;;5.07;1.17;;;;;;;;;;4971027;28;20495;-75
2022/05/28 12:54:59;;;;;;;1.77;1.00;;;;;;;;;;4970921;28;20041;-74
2022/05/28 12:57:26;;;;;;;1.13;0.98;;;;;;;;;;4973283;28;20037;-73
2022/05/28 13:00:08;;;;;;;1.10;0.90;;;;;;;;;;4973579;28;20026;-76
2022/05/28 13:02:53;;;;;;;2.63;0.80;;;;;;;;;;4975152;28;20449;-75
2022/05/28 13:05:39;;;;;;;2.60;1.10;;;;;;;;;;4973542;28;20025;-75
2022/05/28 13:08:10;;;;;;;2.63;1.20;;;;;;;;;;4970843;28;20039;-75
2022/05/28 13:10:37;;;;;;;3.50;0.93;;;;;;;;;;4970799;28;20027;-76
2022/05/28 13:13:36;;;;;;;2.50;1.20;;;;;;;;;;4973376;28;20027;-75
2022/05/28 13:16:08;;;;;;;1.13;0.90;;;;;;;;;;5003266;28;20070;-75
2022/05/28 13:18:34;;;;;;;1.67;1.10;;;;;;;;;;5004067;28;20484;-75
2022/05/28 13:21:19;;;;;;;1.38;1.02;;;;;;;;;;5008091;28;20037;-75
2022/05/28 13:24:00;;;;;;;1.70;1.20;;;;;;;;;;5005029;28;20475;-75
2022/05/28 13:26:32;;;;;;;4.80;1.08;;;;;;;;;;4995777;28;20556;-75
2022/05/28 13:29:15;;;;;;;1.33;1.05;;;;;;;;;;4996614;28;20030;-76
2022/05/28 13:31:44;;;;;;;3.58;1.17;;;;;;;;;;4995777;28;20042;-75
2022/05/28 13:34:21;;;;;;;2.05;1.20;;;;;;;;;;4996123;28;20027;-75
2022/05/28 13:36:47;;;;;;;2.05;0.90;;;;;;;;;;4996073;28;20026;-75
2022/05/28 13:39:14;;;;;;;2.20;1.08;;;;;;;;;;4992382;28;20504;-76
2022/05/28 13:41:42;;;;;;;4.22;1.10;;;;;;;;;;4995915;28;20031;-75
2022/05/28 13:44:10;;;;;;;1.60;1.20;;;;;;;;;;4996577;28;20030;-76
2022/05/28 13:46:37;;;;;;;3.08;1.20;;;;;;;;;;4995769;28;20057;-75
2022/05/28 13:49:07;;;;;;;4.25;1.40;;;;;;;;;;4996040;28;20029;-76
2022/05/28 13:51:35;;;;;;;2.70;1.02;;;;;;;;;;4968002;28;20519;-75
2022/05/28 13:54:03;;;;;;;1.58;1.00;;;;;;;;;;4953948;29;20046;-76
2022/05/28 13:56:32;;;;;;;1.75;1.10;;;;;;;;;;4951196;28;20031;-76
2022/05/28 13:58:59;;;;;;;4.00;0.93;;;;;;;;;;4950703;28;20023;-75
2022/05/28 14:01:32;;;;;;;1.33;0.90;;;;;;;;;;4950531;28;20031;-76
2022/05/28 14:04:11;;;;;;;2.72;1.20;;;;;;;;;;4954730;28;20034;-75
2022/05/28 14:06:40;;;;;;;2.50;1.10;;;;;;;;;;4954729;29;20029;-76
2022/05/28 14:09:06;;;;;;;2.38;1.48;;;;;;;;;;4953188;28;20034;-75
2022/05/28 14:11:37;;;;;;;1.83;1.30;;;;;;;;;;4955193;28;20392;-76
2022/05/28 14:14:21;;;;;;;1.90;1.00;;;;;;;;;;4954539;28;20418;-75
2022/05/28 14:16:52;;;;;;;2.55;1.20;;;;;;;;;;4954471;28;20026;-76
2022/05/28 14:19:20;;;;;;;2.00;1.17;;;;;;;;;;4954377;28;20027;-75
2022/05/28 14:21:54;;;;;;;3.03;1.23;;;;;;;;;;4954599;28;20027;-76
2022/05/28 14:24:33;;;;;;;1.50;1.00;;;;;;;;;;4954477;28;20381;-76
2022/05/28 14:27:08;;;;;;;3.13;1.13;;;;;;;;;;4954369;29;20039;-75
2022/05/28 14:29:36;;;;;;;1.88;1.23;;;;;;;;;;4955092;28;20285;-76
2022/05/28 14:32:05;;;;;;;2.25;1.15;;;;;;;;;;4954224;28;20025;-75
2022/05/28 14:34:31;;;;;;;1.95;1.00;;;;;;;;;;4954204;28;20111;-76
2022/05/28 14:36:59;;;;;;;1.88;1.02;;;;;;;;;;4954548;28;20384;-75
2022/05/28 14:39:26;;;;;;;3.58;1.13;;;;;;;;;;4954264;28;20035;-75
2022/05/28 14:42:02;;;;;;;1.20;0.70;;;;;;;;;;4954455;28;20034;-75
2022/05/28 14:44:29;;;;;;;3.17;1.10;;;;;;;;;;4953656;28;20028;-76
2022/05/28 14:46:56;;;;;;;1.75;0.90;;;;;;;;;;4960298;28;20459;-75
2022/05/28 14:49:28;;;;;;;2.60;0.80;;;;;;;;;;4973330;28;20029;-76
2022/05/28 14:52:01;;;;;;;3.13;1.08;;;;;;;;;;4973508;28;20014;-75
2022/05/28 14:54:30;;;;;;;1.55;0.90;;;;;;;;;;4973194;28;20537;-75
2022/05/28 14:56:56;;;;;;;2.95;1.20;;;;;;;;;;4973438;28;20019;-75
2022/05/28 14:59:34;;;;;;;2.65;0.90;;;;;;;;;;4973221;28;20034;-75
2022/05/28 15:02:10;;;;;;;1.80;1.00;;;;;;;;;;4972888;28;20407;-75
2022/05/28 15:04:37;;;;;;;1.35;0.95;;;;;;;;;;4972835;28;20031;-75